Time;durP1;ratioP1;P1;durP2;ratioP2;P2;SDS_P1;SDS_P2;PMS_P1;PMS_P2;Temp;Humidity;BMP_temperature;BMP_pressure;BME280_temperature;BME280_humidity;BME280_pressure;Samples;Min_cycle;Max_cycle;Signal;HPM_P1;HPM_P2
2023/03/04 00:00:11;;;;;;;39.90;22.10;;;;;;;-0.45;83.34;99772.59;103505;1256;99447;-69
2023/03/04 00:02:58;;;;;;;41.30;22.40;;;;;;;-0.45;83.43;99767.11;102631;1260;1002971;-69
2023/03/04 00:05:25;;;;;;;38.50;21.80;;;;;;;-0.43;83.25;99766.79;103880;1256;109418;-69
2023/03/04 00:07:53;;;;;;;39.40;22.30;;;;;;;-0.42;83.41;99760.98;104066;1253;98289;-69
2023/03/04 00:10:21;;;;;;;41.30;22.00;;;;;;;-0.41;83.32;99758.59;102606;1256;1002690;-69
2023/03/04 00:12:48;;;;;;;41.30;22.50;;;;;;;-0.41;83.34;99760.64;103542;1254;97946;-68
2023/03/04 00:15:15;;;;;;;43.60;21.50;;;;;;;-0.39;83.46;99756.38;103632;1255;1002429;-69
2023/03/04 00:17:44;;;;;;;38.70;20.90;;;;;;;-0.39;83.49;99760.14;104016;1253;107536;-69
2023/03/04 00:20:15;;;;;;;40.70;20.30;;;;;;;-0.39;83.44;99754.84;102661;1256;1002834;-69
2023/03/04 00:22:42;;;;;;;40.30;21.70;;;;;;;-0.38;83.44;99756.38;103449;1253;107490;-69
2023/03/04 00:25:11;;;;;;;38.80;21.40;;;;;;;-0.37;83.52;99754.16;103462;1255;1002194;-69
2023/03/04 00:27:40;;;;;;;40.50;21.50;;;;;;;-0.35;83.44;99741.38;103617;1256;138690;-69
2023/03/04 00:30:10;;;;;;;44.00;22.70;;;;;;;-0.34;83.65;99730.45;103430;1257;107285;-69
2023/03/04 00:32:37;;;;;;;42.20;21.20;;;;;;;-0.33;83.51;99735.75;103474;1256;138598;-69
2023/03/04 00:35:09;;;;;;;44.20;21.70;;;;;;;-0.31;83.54;99729.27;102903;1254;1002925;-69
2023/03/04 00:37:36;;;;;;;48.50;24.00;;;;;;;-0.31;83.66;99722.60;102638;1257;1003002;-69
2023/03/04 00:40:05;;;;;;;44.00;22.70;;;;;;;-0.31;83.58;99713.89;103252;1256;138688;-69
2023/03/04 00:42:32;;;;;;;46.20;22.60;;;;;;;-0.29;83.50;99715.09;103664;1259;108694;-69
2023/03/04 00:44:59;;;;;;;45.30;23.40;;;;;;;-0.27;83.49;99707.06;103150;1259;1003029;-68
2023/03/04 00:47:27;;;;;;;45.10;23.60;;;;;;;-0.26;83.65;99700.58;102692;1254;1003592;-69
2023/03/04 00:49:55;;;;;;;46.60;23.40;;;;;;;-0.25;83.64;99699.89;103541;1256;97952;-69
2023/03/04 00:52:22;;;;;;;47.50;23.40;;;;;;;-0.27;83.57;99698.19;103244;1255;112242;-69
2023/03/04 00:54:49;;;;;;;53.20;24.80;;;;;;;-0.27;83.57;99694.41;103346;1256;107786;-68
2023/03/04 00:57:17;;;;;;;53.10;24.10;;;;;;;-0.27;83.62;99688.45;103377;1256;138721;-69
2023/03/04 00:59:46;;;;;;;50.10;24.60;;;;;;;-0.28;83.79;99692.54;103437;1258;109092;-68
2023/03/04 01:02:14;;;;;;;49.90;22.70;;;;;;;-0.29;83.74;99689.81;102418;1259;1002945;-68
2023/03/04 01:04:41;;;;;;;48.30;22.80;;;;;;;-0.29;83.45;99684.00;103300;1256;110888;-68
2023/03/04 01:07:09;;;;;;;51.60;24.20;;;;;;;-0.29;83.59;99685.55;104076;1256;107649;-68
2023/03/04 01:09:36;;;;;;;50.10;23.80;;;;;;;-0.29;83.48;99675.80;103146;1256;138727;-68
2023/03/04 01:12:04;;;;;;;53.10;24.80;;;;;;;-0.28;83.58;99674.26;103690;1256;107958;-68
2023/03/04 01:14:32;;;;;;;45.80;22.90;;;;;;;-0.28;83.56;99664.70;103338;1256;138683;-68
2023/03/04 01:16:59;;;;;;;53.50;24.20;;;;;;;-0.29;83.55;99654.27;103763;1256;111204;-68
2023/03/04 01:19:27;;;;;;;51.80;24.00;;;;;;;-0.30;83.40;99655.30;103345;1258;107747;-68
2023/03/04 01:21:54;;;;;;;46.60;23.00;;;;;;;-0.30;83.35;99641.30;103545;1258;139240;-68
2023/03/04 01:24:21;;;;;;;45.00;22.10;;;;;;;-0.32;83.12;99633.09;102543;1258;1002958;-68
2023/03/04 01:26:48;;;;;;;44.20;22.20;;;;;;;-0.33;83.17;99628.31;103118;1256;139439;-68
2023/03/04 01:29:16;;;;;;;49.00;23.30;;;;;;;-0.35;83.13;99625.23;103446;1256;112163;-69
2023/03/04 01:31:43;;;;;;;48.10;24.00;;;;;;;-0.37;83.31;99620.42;103111;1260;1002905;-68
2023/03/04 01:34:11;;;;;;;51.00;24.20;;;;;;;-0.36;83.39;99611.38;103102;1256;138717;-68
2023/03/04 01:36:39;;;;;;;57.80;26.00;;;;;;;-0.38;83.40;99591.39;103256;1260;108781;-68
2023/03/04 01:39:06;;;;;;;57.30;26.40;;;;;;;-0.38;83.59;99583.86;102424;1256;1002548;-69
2023/03/04 01:41:34;;;;;;;55.80;25.60;;;;;;;-0.38;83.74;99583.70;103287;1257;111269;-68
2023/03/04 01:44:02;;;;;;;52.90;24.90;;;;;;;-0.39;83.89;99578.06;102371;1256;1003453;-69
2023/03/04 01:46:31;;;;;;;54.50;25.40;;;;;;;-0.39;83.59;99578.23;103271;1260;97904;-68
2023/03/04 01:49:00;;;;;;;46.20;23.60;;;;;;;-0.42;83.54;99569.86;103353;1256;108129;-68
2023/03/04 01:51:29;;;;;;;43.80;22.10;;;;;;;-0.43;83.45;99571.91;103611;1255;138495;-69
2023/03/04 01:53:57;;;;;;;46.80;24.00;;;;;;;-0.43;83.24;99571.05;103785;1258;112021;-69
2023/03/04 01:56:29;;;;;;;49.70;22.50;;;;;;;-0.43;83.24;99566.45;103821;1259;138718;-68
2023/03/04 01:59:15;;;;;;;54.00;24.90;;;;;;;-0.41;83.37;99565.08;103319;1255;97806;-68
2023/03/04 02:01:44;;;;;;;50.00;24.60;;;;;;;-0.40;83.73;99552.44;103892;1256;107893;-69
2023/03/04 02:04:12;;;;;;;52.60;24.90;;;;;;;-0.40;83.67;99545.27;103573;1255;139313;-68
2023/03/04 02:06:41;;;;;;;47.30;22.70;;;;;;;-0.40;83.74;99535.19;103486;1259;110228;-68
2023/03/04 02:09:09;;;;;;;49.20;24.50;;;;;;;-0.41;83.71;99521.18;103559;1259;138454;-68
2023/03/04 02:11:37;;;;;;;47.90;22.30;;;;;;;-0.41;83.77;99513.16;103565;1256;98393;-68
2023/03/04 02:14:06;;;;;;;43.10;22.50;;;;;;;-0.41;83.95;99522.21;103413;1258;138555;-68
2023/03/04 02:16:33;;;;;;;47.10;22.70;;;;;;;-0.41;83.89;99530.58;104611;1254;95958;-69
2023/03/04 02:19:01;;;;;;;49.30;23.60;;;;;;;-0.40;84.11;99522.38;103007;1253;1002490;-69
2023/03/04 02:21:30;;;;;;;48.10;22.50;;;;;;;-0.40;84.14;99522.89;104071;1259;138924;-69
2023/03/04 02:24:07;;;;;;;45.40;22.10;;;;;;;-0.41;84.23;99520.66;104539;1254;96200;-69
2023/03/04 02:26:35;;;;;;;49.30;22.70;;;;;;;-0.40;84.26;99514.86;103745;1258;138581;-69
2023/03/04 02:29:04;;;;;;;49.80;23.70;;;;;;;-0.40;84.31;99524.42;102435;1256;1003105;-69
2023/03/04 02:31:35;;;;;;;47.70;23.40;;;;;;;-0.39;84.36;99522.38;103947;1253;112937;-69
2023/03/04 02:34:06;;;;;;;51.10;23.70;;;;;;;-0.38;84.53;99522.04;103356;1260;138820;-69
2023/03/04 02:36:36;;;;;;;46.70;23.60;;;;;;;-0.39;84.52;99531.43;104088;1259;98252;-69
2023/03/04 02:39:07;;;;;;;52.50;25.30;;;;;;;-0.38;84.75;99521.17;103730;1254;138582;-69
2023/03/04 02:41:36;;;;;;;45.90;23.40;;;;;;;-0.36;84.89;99524.10;103713;1256;1002355;-70
2023/03/04 02:44:04;;;;;;;50.30;24.30;;;;;;;-0.35;84.84;99525.98;104000;1253;139539;-69
2023/03/04 02:46:31;;;;;;;53.20;25.30;;;;;;;-0.33;85.07;99519.67;104179;1255;106614;-70
2023/03/04 02:48:58;;;;;;;46.30;23.10;;;;;;;-0.31;85.00;99528.55;101928;1260;1002654;-69
2023/03/04 02:51:26;;;;;;;51.40;25.50;;;;;;;-0.29;84.91;99528.38;103169;1260;138632;-69
2023/03/04 02:53:53;;;;;;;52.30;24.20;;;;;;;-0.27;85.14;99523.24;103500;1259;97848;-69
2023/03/04 02:56:21;;;;;;;49.40;24.30;;;;;;;-0.25;85.14;99517.79;103189;1256;138709;-69
2023/03/04 02:58:48;;;;;;;53.40;26.40;;;;;;;-0.24;85.11;99517.60;102514;1259;1003337;-68
2023/03/04 03:01:15;;;;;;;51.40;25.90;;;;;;;-0.23;85.13;99515.21;103017;1259;1003269;-69
2023/03/04 03:03:43;;;;;;;54.90;25.30;;;;;;;-0.22;85.15;99514.01;104179;1260;138709;-69
2023/03/04 03:06:12;;;;;;;52.50;26.60;;;;;;;-0.19;85.05;99516.23;103062;1259;1003037;-68
2023/03/04 03:08:39;;;;;;;49.40;24.00;;;;;;;-0.17;85.09;99510.61;103304;1258;138676;-69
2023/03/04 03:11:08;;;;;;;51.50;25.20;;;;;;;-0.15;85.14;99513.52;103554;1259;108466;-69
2023/03/04 03:13:35;;;;;;;51.20;26.40;;;;;;;-0.14;85.22;99509.92;103501;1258;96643;-69
2023/03/04 03:16:03;;;;;;;54.40;26.30;;;;;;;-0.11;85.08;99507.52;103404;1255;138804;-69
2023/03/04 03:18:30;;;;;;;52.20;26.20;;;;;;;-0.10;85.03;99507.34;103317;1260;97791;-69
2023/03/04 03:20:57;;;;;;;51.40;26.70;;;;;;;-0.08;85.05;99506.66;103291;1256;138327;-69
2023/03/04 03:23:28;;;;;;;51.90;26.60;;;;;;;-0.07;85.08;99503.23;103899;1254;107125;-69
2023/03/04 03:26:00;;;;;;;48.20;25.80;;;;;;;-0.04;85.08;99499.48;102941;1259;452172;-68
2023/03/04 03:28:28;;;;;;;45.50;25.10;;;;;;;-0.03;84.96;99500.32;103198;1259;108387;-69
2023/03/04 03:30:55;;;;;;;52.00;26.00;;;;;;;-0.02;85.04;99491.61;103340;1260;97787;-69
2023/03/04 03:33:22;;;;;;;47.50;24.90;;;;;;;0.02;84.96;99497.60;103234;1260;138647;-69
2023/03/04 03:35:50;;;;;;;51.70;26.30;;;;;;;0.03;84.87;99490.42;103305;1256;109408;-69
2023/03/04 03:38:17;;;;;;;51.70;26.40;;;;;;;0.05;84.92;99484.09;103654;1254;138936;-69
2023/03/04 03:40:45;;;;;;;49.30;24.90;;;;;;;0.08;84.92;99488.35;102833;1258;1003528;-68
2023/03/04 03:43:12;;;;;;;51.30;26.10;;;;;;;0.10;84.92;99484.08;103404;1254;98024;-68
2023/03/04 03:45:39;;;;;;;54.10;26.70;;;;;;;0.11;84.87;99476.90;103579;1255;139648;-69
2023/03/04 03:48:07;;;;;;;49.10;25.90;;;;;;;0.13;84.81;99477.23;103434;1254;107819;-70
2023/03/04 03:50:55;;;;;;;50.50;26.90;;;;;;;0.16;84.86;99473.96;102936;1259;1003335;-69
2023/03/04 03:53:22;;;;;;;48.20;25.30;;;;;;;0.18;84.69;99470.20;103693;1259;107721;-69
2023/03/04 03:55:49;;;;;;;48.00;24.80;;;;;;;0.19;84.68;99469.37;103338;1260;97833;-69
2023/03/04 03:58:16;;;;;;;47.00;25.10;;;;;;;0.20;84.61;99463.71;103354;1259;138611;-69
2023/03/04 04:00:43;;;;;;;50.20;25.90;;;;;;;0.22;84.67;99468.16;103370;1254;1002326;-68
2023/03/04 04:03:14;;;;;;;46.60;25.70;;;;;;;0.24;84.66;99467.63;103477;1259;138483;-68
2023/03/04 04:05:41;;;;;;;48.10;26.10;;;;;;;0.25;84.58;99460.96;103676;1257;107375;-69
2023/03/04 04:08:10;;;;;;;49.40;24.70;;;;;;;0.27;84.60;99465.05;102419;1258;1003461;-69
2023/03/04 04:10:37;;;;;;;50.20;26.30;;;;;;;0.30;84.53;99463.84;102724;1258;1016427;-69
2023/03/04 04:13:04;;;;;;;51.10;26.80;;;;;;;0.33;84.42;99459.90;103699;1256;108286;-70
2023/03/04 04:15:32;;;;;;;52.30;25.50;;;;;;;0.34;84.39;99462.97;103951;1260;138777;-70
2023/03/04 04:17:59;;;;;;;45.80;24.50;;;;;;;0.36;84.28;99458.36;103470;1260;107692;-69
2023/03/04 04:20:26;;;;;;;47.30;25.70;;;;;;;0.39;84.24;99459.21;103318;1260;138429;-70
2023/03/04 04:22:53;;;;;;;48.60;25.30;;;;;;;0.41;84.15;99462.79;103595;1260;111275;-68
2023/03/04 04:25:20;;;;;;;46.90;25.30;;;;;;;0.43;84.07;99462.27;103213;1258;109079;-70
2023/03/04 04:27:48;;;;;;;46.50;24.20;;;;;;;0.45;83.99;99460.89;103149;1257;138422;-68
2023/03/04 04:30:16;;;;;;;43.30;24.10;;;;;;;0.47;84.05;99462.41;103797;1257;111103;-69
2023/03/04 04:32:43;;;;;;;46.60;26.20;;;;;;;0.49;83.82;99453.51;103499;1254;138645;-69
2023/03/04 04:35:11;;;;;;;43.80;23.70;;;;;;;0.51;83.78;99456.05;103844;1259;112143;-69
2023/03/04 04:37:38;;;;;;;46.60;24.50;;;;;;;0.53;83.73;99449.21;102698;1254;1003095;-70
2023/03/04 04:40:07;;;;;;;44.70;23.80;;;;;;;0.55;83.62;99445.46;103278;1259;138722;-69
2023/03/04 04:42:35;;;;;;;43.20;23.70;;;;;;;0.56;83.53;99450.76;104174;1260;107417;-69
2023/03/04 04:45:02;;;;;;;39.90;22.90;;;;;;;0.58;83.43;99445.27;103624;1254;138312;-69
2023/03/04 04:47:30;;;;;;;46.10;23.80;;;;;;;0.60;83.38;99442.86;103724;1257;114227;-69
2023/03/04 04:49:59;;;;;;;43.30;23.50;;;;;;;0.62;83.28;99448.33;103196;1260;138459;-68
2023/03/04 04:52:27;;;;;;;45.00;23.50;;;;;;;0.64;83.30;99443.19;103333;1257;97662;-69
2023/03/04 04:54:54;;;;;;;42.70;22.70;;;;;;;0.64;83.23;99446.27;103437;1254;108492;-69
2023/03/04 04:57:22;;;;;;;44.20;23.20;;;;;;;0.66;83.13;99444.37;103767;1258;138730;-69
2023/03/04 04:59:49;;;;;;;39.70;22.80;;;;;;;0.66;83.14;99440.77;104274;1254;112539;-69
2023/03/04 05:02:17;;;;;;;40.10;23.20;;;;;;;0.66;83.20;99436.32;103139;1259;138485;-69
2023/03/04 05:04:46;;;;;;;42.90;23.30;;;;;;;0.66;83.12;99440.95;102558;1258;1003083;-68
2023/03/04 05:07:14;;;;;;;38.60;23.00;;;;;;;0.66;83.15;99444.37;103665;1260;107540;-69
2023/03/04 05:09:41;;;;;;;43.10;23.50;;;;;;;0.66;83.23;99438.55;103278;1255;138302;-68
2023/03/04 05:12:08;;;;;;;39.70;21.90;;;;;;;0.64;83.21;99431.38;103885;1255;110910;-69
2023/03/04 05:14:36;;;;;;;44.10;24.40;;;;;;;0.64;83.27;99430.17;103606;1260;138577;-68
2023/03/04 05:17:03;;;;;;;44.10;23.40;;;;;;;0.64;83.24;99432.91;103684;1254;97878;-69
2023/03/04 05:19:30;;;;;;;40.50;22.70;;;;;;;0.64;83.36;99433.09;103892;1257;107652;-68
2023/03/04 05:21:57;;;;;;;39.90;22.20;;;;;;;0.64;83.29;99433.09;102645;1254;1002979;-68
2023/03/04 05:24:25;;;;;;;39.70;22.70;;;;;;;0.64;83.25;99427.95;103365;1257;111577;-69
2023/03/04 05:26:52;;;;;;;42.20;21.30;;;;;;;0.65;83.25;99426.75;103184;1254;138473;-68
2023/03/04 05:29:19;;;;;;;41.50;22.40;;;;;;;0.63;83.23;99422.48;103891;1254;98546;-68
2023/03/04 05:31:47;;;;;;;37.80;20.90;;;;;;;0.62;83.15;99424.03;104090;1258;108641;-69
2023/03/04 05:34:14;;;;;;;39.50;22.20;;;;;;;0.62;83.24;99420.10;103784;1254;138232;-69
2023/03/04 05:36:41;;;;;;;41.90;22.20;;;;;;;0.63;83.32;99415.82;103834;1254;111411;-68
2023/03/04 05:39:08;;;;;;;39.30;21.50;;;;;;;0.63;83.36;99419.92;103241;1259;138383;-69
2023/03/04 05:41:35;;;;;;;45.50;22.20;;;;;;;0.64;83.28;99421.46;103375;1258;97792;-68
2023/03/04 05:44:03;;;;;;;38.60;21.40;;;;;;;0.64;83.14;99421.11;104246;1254;138390;-68
2023/03/04 05:46:30;;;;;;;38.10;20.60;;;;;;;0.63;83.23;99420.95;102887;1254;1015587;-69
2023/03/04 05:48:59;;;;;;;37.00;20.90;;;;;;;0.63;83.26;99416.51;103620;1254;111302;-68
2023/03/04 05:51:27;;;;;;;37.30;21.00;;;;;;;0.64;83.30;99418.89;103200;1258;138390;-69
2023/03/04 05:53:54;;;;;;;38.30;21.90;;;;;;;0.66;83.27;99414.60;103597;1255;97047;-68
2023/03/04 05:56:22;;;;;;;36.20;20.20;;;;;;;0.67;83.33;99412.71;103240;1258;138974;-68
2023/03/04 05:58:49;;;;;;;38.00;20.20;;;;;;;0.66;83.29;99416.14;103311;1254;97787;-69
2023/03/04 06:01:17;;;;;;;38.90;21.10;;;;;;;0.66;83.21;99410.84;103291;1254;114754;-69
2023/03/04 06:03:47;;;;;;;35.10;20.10;;;;;;;0.67;83.19;99419.73;103556;1254;138684;-69
2023/03/04 06:06:14;;;;;;;37.00;20.30;;;;;;;0.68;83.21;99412.37;103833;1254;97786;-69
2023/03/04 06:08:41;;;;;;;35.80;20.00;;;;;;;0.69;83.36;99413.20;102482;1254;1002828;-69
2023/03/04 06:11:09;;;;;;;38.70;20.00;;;;;;;0.70;83.31;99409.42;103381;1255;96233;-69
2023/03/04 06:13:39;;;;;;;33.90;19.80;;;;;;;0.71;83.19;99406.36;103306;1258;112573;-68
2023/03/04 06:16:09;;;;;;;41.10;20.80;;;;;;;0.71;83.26;99404.80;103163;1254;138961;-69
2023/03/04 06:18:37;;;;;;;39.00;20.40;;;;;;;0.72;83.23;99405.16;103467;1254;97886;-69
2023/03/04 06:21:05;;;;;;;36.10;20.10;;;;;;;0.73;83.29;99395.75;103256;1255;138288;-68
2023/03/04 06:23:32;;;;;;;34.70;20.00;;;;;;;0.74;83.21;99397.63;103446;1254;97800;-69
2023/03/04 06:26:01;;;;;;;37.60;20.10;;;;;;;0.76;83.29;99397.27;103213;1254;138309;-68
2023/03/04 06:28:28;;;;;;;38.50;20.40;;;;;;;0.76;83.26;99397.09;102938;1260;1002289;-69
2023/03/04 06:30:57;;;;;;;35.40;20.80;;;;;;;0.78;83.18;99396.75;103408;1254;98222;-67
2023/03/04 06:33:25;;;;;;;36.40;19.50;;;;;;;0.78;83.19;99399.48;102437;1257;1003023;-67
2023/03/04 06:35:56;;;;;;;37.50;20.40;;;;;;;0.80;83.22;99399.13;103309;1254;97868;-68
2023/03/04 06:38:23;;;;;;;35.80;20.60;;;;;;;0.80;83.19;99399.64;103102;1254;138463;-69
2023/03/04 06:40:51;;;;;;;36.90;20.40;;;;;;;0.80;83.20;99391.42;103267;1254;109590;-67
2023/03/04 06:43:20;;;;;;;35.50;20.30;;;;;;;0.80;83.14;99389.36;103327;1254;98372;-68
2023/03/04 06:45:48;;;;;;;31.60;19.60;;;;;;;0.81;83.22;99389.88;103212;1254;138460;-68
2023/03/04 06:48:16;;;;;;;43.00;20.80;;;;;;;0.81;83.30;99388.33;103300;1254;97842;-70
2023/03/04 06:50:43;;;;;;;35.90;20.70;;;;;;;0.81;83.23;99385.59;103195;1254;138392;-69
2023/03/04 06:53:11;;;;;;;37.20;20.90;;;;;;;0.83;83.20;99387.45;103431;1257;107599;-69
2023/03/04 06:55:38;;;;;;;33.00;19.60;;;;;;;0.83;83.19;99392.42;103342;1257;97694;-71
2023/03/04 06:58:06;;;;;;;32.40;19.10;;;;;;;0.84;83.19;99392.75;103249;1260;138160;-69
2023/03/04 07:00:33;;;;;;;37.40;20.50;;;;;;;0.85;83.21;99393.09;103319;1254;97771;-69
2023/03/04 07:03:01;;;;;;;37.50;20.10;;;;;;;0.86;83.25;99392.56;103154;1257;138220;-72
2023/03/04 07:05:29;;;;;;;34.30;19.40;;;;;;;0.87;83.21;99389.99;104587;1254;108454;-72
2023/03/04 07:07:56;;;;;;;37.00;20.00;;;;;;;0.88;83.10;99393.40;104531;1254;138936;-70
2023/03/04 07:10:23;;;;;;;37.00;20.00;;;;;;;0.89;83.09;99394.77;103877;1254;107232;-69
2023/03/04 07:12:51;;;;;;;29.00;18.30;;;;;;;0.91;83.16;99384.69;103227;1254;97794;-69
2023/03/04 07:15:18;;;;;;;37.20;20.30;;;;;;;0.92;83.07;99396.15;103226;1253;138190;-69
2023/03/04 07:17:45;;;;;;;37.00;20.80;;;;;;;0.94;83.04;99395.78;103279;1254;108266;-70
2023/03/04 07:20:13;;;;;;;32.00;19.90;;;;;;;0.95;82.97;99387.05;103203;1258;138898;-70
2023/03/04 07:22:41;;;;;;;34.90;19.10;;;;;;;0.98;82.93;99379.84;104317;1254;106852;-69
2023/03/04 07:25:09;;;;;;;33.60;19.70;;;;;;;0.98;82.95;99384.29;103353;1254;97891;-72
2023/03/04 07:27:39;;;;;;;32.40;18.60;;;;;;;0.98;82.89;99382.56;104188;1254;138108;-70
2023/03/04 07:30:09;;;;;;;36.10;18.80;;;;;;;0.99;82.73;99377.26;103246;1254;107696;-68
2023/03/04 07:32:37;;;;;;;29.90;18.20;;;;;;;1.00;82.72;99380.31;104015;1254;139864;-67
2023/03/04 07:35:04;;;;;;;30.40;17.60;;;;;;;1.00;82.58;99376.21;103276;1254;107944;-68
2023/03/04 07:37:32;;;;;;;33.30;18.80;;;;;;;1.01;82.60;99367.83;103542;1257;97802;-68
2023/03/04 07:39:59;;;;;;;32.00;18.60;;;;;;;1.02;82.63;99376.20;102513;1253;1003735;-67
2023/03/04 07:42:27;;;;;;;32.00;17.10;;;;;;;1.04;82.47;99370.19;102618;1253;1002504;-68
2023/03/04 07:44:58;;;;;;;30.40;18.00;;;;;;;1.05;82.45;99366.92;103259;1254;138549;-68
2023/03/04 07:47:26;;;;;;;32.70;18.70;;;;;;;1.05;82.36;99362.48;103330;1254;108589;-68
2023/03/04 07:49:55;;;;;;;31.90;18.10;;;;;;;1.07;82.35;99358.52;103645;1257;97938;-68
2023/03/04 07:52:22;;;;;;;32.20;18.20;;;;;;;1.07;82.23;99357.85;103393;1254;111780;-68
2023/03/04 07:54:49;;;;;;;32.00;17.90;;;;;;;1.08;82.15;99357.33;103276;1254;108650;-72
2023/03/04 07:57:16;;;;;;;30.30;18.30;;;;;;;1.08;82.05;99356.14;103473;1260;138304;-70
2023/03/04 07:59:44;;;;;;;36.60;18.20;;;;;;;1.09;82.08;99352.03;103298;1254;108148;-70
2023/03/04 08:02:11;;;;;;;35.10;18.90;;;;;;;1.09;81.98;99347.40;103106;1253;140039;-70
2023/03/04 08:04:39;;;;;;;35.70;17.80;;;;;;;1.10;81.90;99352.35;103288;1254;113239;-69
2023/03/04 08:07:15;;;;;;;30.50;17.10;;;;;;;1.10;81.82;99355.61;103158;1254;108242;-73
2023/03/04 08:09:43;;;;;;;30.10;17.40;;;;;;;1.12;81.87;99349.26;103159;1254;138367;-72
2023/03/04 08:12:10;;;;;;;30.40;17.10;;;;;;;1.14;81.84;99350.42;103270;1254;107531;-72
2023/03/04 08:14:38;;;;;;;31.70;17.40;;;;;;;1.17;81.76;99348.01;101625;1254;1015769;-72
2023/03/04 08:17:05;;;;;;;28.30;16.10;;;;;;;1.19;81.67;99345.41;102557;1254;1003341;-71
2023/03/04 08:19:33;;;;;;;29.60;16.90;;;;;;;1.20;81.65;99340.61;103014;1258;108069;-72
2023/03/04 08:22:00;;;;;;;27.50;16.70;;;;;;;1.21;81.56;99343.51;104359;1254;138241;-71
2023/03/04 08:24:27;;;;;;;33.30;16.50;;;;;;;1.21;81.37;99343.34;104193;1254;107234;-72
2023/03/04 08:26:58;;;;;;;28.80;16.20;;;;;;;1.23;81.40;99341.79;102962;1254;138598;-71
2023/03/04 08:29:26;;;;;;;30.30;15.70;;;;;;;1.24;81.32;99337.14;103280;1254;110180;-72
2023/03/04 08:31:54;;;;;;;30.60;15.70;;;;;;;1.22;81.14;99331.00;103219;1254;107201;-67
2023/03/04 08:34:24;;;;;;;27.00;15.40;;;;;;;1.24;81.23;99339.71;102383;1254;1002946;-70
2023/03/04 08:36:52;;;;;;;30.10;15.60;;;;;;;1.25;81.13;99337.30;102287;1254;1002983;-69
2023/03/04 08:39:20;;;;;;;31.10;16.60;;;;;;;1.26;81.13;99341.59;102342;1255;1003037;-69
2023/03/04 08:41:48;;;;;;;30.70;16.40;;;;;;;1.27;81.22;99339.02;103223;1254;111832;-70
2023/03/04 08:44:16;;;;;;;29.50;16.50;;;;;;;1.27;81.23;99335.94;102360;1253;1002878;-72
2023/03/04 08:46:45;;;;;;;28.20;15.50;;;;;;;1.29;81.23;99331.30;104520;1254;97175;-71
2023/03/04 08:49:14;;;;;;;30.10;15.40;;;;;;;1.30;81.25;99328.55;103205;1254;108616;-71
2023/03/04 08:51:44;;;;;;;26.10;15.80;;;;;;;1.32;81.25;99329.38;104476;1254;139577;-71
2023/03/04 08:54:12;;;;;;;31.30;16.70;;;;;;;1.33;81.22;99330.57;104552;1253;109904;-71
2023/03/04 08:56:40;;;;;;;37.30;17.50;;;;;;;1.36;81.22;99324.89;104416;1254;139100;-71
2023/03/04 08:59:11;;;;;;;29.80;16.90;;;;;;;1.37;81.16;99324.70;104553;1254;96113;-71
2023/03/04 09:01:38;;;;;;;34.70;16.60;;;;;;;1.38;81.06;99326.05;103729;1254;1002492;-72
2023/03/04 09:04:06;;;;;;;30.50;16.80;;;;;;;1.39;80.93;99322.29;102169;1254;1003804;-70
2023/03/04 09:06:33;;;;;;;29.20;16.60;;;;;;;1.42;80.91;99320.70;103294;1254;111246;-68
2023/03/04 09:09:01;;;;;;;28.80;16.70;;;;;;;1.45;80.96;99317.45;103047;1254;138358;-69
2023/03/04 09:11:28;;;;;;;30.30;16.50;;;;;;;1.48;80.95;99311.92;103161;1254;97793;-72
2023/03/04 09:13:56;;;;;;;30.60;16.30;;;;;;;1.51;80.85;99315.14;103191;1258;107229;-69
2023/03/04 09:16:23;;;;;;;34.70;15.80;;;;;;;1.55;80.91;99313.90;103190;1254;97791;-70
2023/03/04 09:19:01;;;;;;;28.10;15.80;;;;;;;1.64;80.74;99304.05;103206;1254;113166;-72
2023/03/04 09:21:29;;;;;;;30.60;16.20;;;;;;;1.69;80.70;99306.55;104323;1254;138205;-72
2023/03/04 09:23:56;;;;;;;28.80;15.90;;;;;;;1.74;80.66;99300.65;103339;1257;97693;-68
2023/03/04 09:26:25;;;;;;;31.00;16.70;;;;;;;1.79;80.47;99295.98;103073;1257;138506;-71
2023/03/04 09:28:54;;;;;;;32.60;16.10;;;;;;;1.84;80.29;99298.51;103292;1254;97855;-72
2023/03/04 09:31:21;;;;;;;33.70;15.70;;;;;;;1.86;80.25;99299.51;101782;1254;1003770;-71
2023/03/04 09:33:50;;;;;;;28.70;15.00;;;;;;;1.88;80.23;99301.87;103134;1254;138512;-68
2023/03/04 09:36:17;;;;;;;30.00;16.40;;;;;;;1.90;80.51;99296.19;103139;1255;98366;-71
2023/03/04 09:38:46;;;;;;;28.70;15.70;;;;;;;1.94;80.23;99296.30;103038;1254;138655;-71
2023/03/04 09:41:19;;;;;;;34.00;15.40;;;;;;;1.93;80.05;99292.02;103223;1254;97788;-71
2023/03/04 09:43:47;;;;;;;28.90;15.70;;;;;;;1.93;79.99;99294.09;101833;1254;1002921;-69
2023/03/04 09:46:19;;;;;;;28.90;15.20;;;;;;;1.92;80.06;99293.75;103132;1254;138758;-70
2023/03/04 09:48:50;;;;;;;38.20;15.80;;;;;;;1.94;80.14;99289.10;102819;1254;1002800;-69
2023/03/04 09:51:27;;;;;;;30.20;15.50;;;;;;;1.94;79.98;99279.85;102440;1254;1003638;-70
2023/03/04 09:54:05;;;;;;;35.50;15.50;;;;;;;1.95;80.05;99282.73;103314;1257;98190;-69
2023/03/04 09:56:33;;;;;;;28.70;15.70;;;;;;;1.97;80.07;99285.46;103676;1253;1014814;-68
2023/03/04 09:59:09;;;;;;;29.60;15.50;;;;;;;1.97;80.13;99283.06;103260;1254;107658;-70
2023/03/04 10:01:42;;;;;;;29.40;15.00;;;;;;;1.98;80.05;99279.13;103302;1254;97764;-68
2023/03/04 10:04:40;;;;;;;28.00;14.70;;;;;;;1.97;79.96;99275.18;103308;1256;107950;-69
2023/03/04 10:07:15;;;;;;;31.00;14.90;;;;;;;1.96;80.06;99274.66;103324;1259;97901;-69
2023/03/04 10:09:47;;;;;;;34.30;14.60;;;;;;;1.96;80.00;99270.89;103132;1254;138111;-69
2023/03/04 10:12:19;;;;;;;32.80;15.10;;;;;;;1.94;79.95;99264.77;102445;1259;1003224;-69
2023/03/04 10:14:52;;;;;;;27.90;14.20;;;;;;;1.93;80.15;99267.01;103153;1254;138583;-69
2023/03/04 10:17:23;;;;;;;30.00;15.40;;;;;;;1.94;80.14;99262.88;102989;1254;106927;-69
2023/03/04 10:19:58;;;;;;;27.80;15.20;;;;;;;1.95;80.10;99263.20;103207;1254;98593;-69
2023/03/04 10:22:32;;;;;;;27.20;13.80;;;;;;;1.98;80.10;99259.41;103306;1253;111254;-68
2023/03/04 10:25:02;;;;;;;28.60;14.10;;;;;;;1.99;80.00;99248.95;102970;1256;108186;-69
2023/03/04 10:27:31;;;;;;;28.80;14.80;;;;;;;2.02;79.98;99250.95;103140;1254;138320;-69
2023/03/04 10:30:00;;;;;;;31.10;14.30;;;;;;;2.06;79.95;99255.18;103206;1254;108904;-68
2023/03/04 10:32:33;;;;;;;33.30;14.90;;;;;;;2.08;80.17;99252.91;103107;1254;138681;-68
2023/03/04 10:35:00;;;;;;;27.00;13.10;;;;;;;2.08;79.97;99237.14;103311;1254;112033;-68
2023/03/04 10:37:46;;;;;;;29.10;13.70;;;;;;;2.11;79.91;99245.15;103253;1254;108444;-68
2023/03/04 10:40:22;;;;;;;29.70;13.70;;;;;;;2.11;79.88;99234.52;104474;1255;138345;-69
2023/03/04 10:42:52;;;;;;;30.50;14.40;;;;;;;2.13;80.04;99231.92;103245;1256;107409;-70
2023/03/04 10:45:25;;;;;;;32.50;14.60;;;;;;;2.15;80.27;99230.86;103071;1254;138486;-68
2023/03/04 10:47:56;;;;;;;26.90;14.40;;;;;;;2.17;80.34;99233.61;103337;1254;111486;-68
2023/03/04 10:50:28;;;;;;;25.10;13.80;;;;;;;2.16;80.49;99221.44;103894;1254;138501;-68
2023/03/04 10:52:56;;;;;;;30.30;14.30;;;;;;;2.15;80.64;99219.37;103261;1254;97822;-67
2023/03/04 10:55:28;;;;;;;30.00;14.30;;;;;;;2.13;80.59;99211.00;103183;1256;107475;-68
2023/03/04 10:57:57;;;;;;;34.80;15.00;;;;;;;2.14;80.70;99219.20;103317;1257;138361;-68
2023/03/04 11:00:32;;;;;;;37.00;16.10;;;;;;;2.15;81.01;99218.17;103243;1254;111735;-68
2023/03/04 11:03:29;;;;;;;29.50;15.20;;;;;;;2.15;81.11;99214.06;103323;1253;138356;-68
2023/03/04 11:06:10;;;;;;;29.90;15.10;;;;;;;2.17;81.30;99215.09;103233;1258;98310;-69
2023/03/04 11:08:39;;;;;;;29.70;15.60;;;;;;;2.15;81.25;99212.35;103163;1256;138310;-71
2023/03/04 11:11:23;;;;;;;31.90;15.70;;;;;;;2.17;81.51;99200.86;103242;1254;97826;-69
2023/03/04 11:13:56;;;;;;;34.00;14.90;;;;;;;2.17;81.56;99211.64;103305;1256;112172;-70